Track Копарейко Семён

Time Latitude Longitude Accuracy (66% radius in meters) Altitude (meters) Speed (km/hour) Bearing (degrees) Battery (%) GPS flag
07:07:01 57.204777 60.121721 0 0 0 0 1 delete
07:07:00 57.204777 60.121721 0 0 0 0 1 delete
07:06:54 57.204777 60.121721 0 0 0 0 1 delete
07:06:53 57.204773 60.121717 0 0 0 0 1 delete
07:06:52 57.204766 60.121709 0 0 0 0 1 delete
07:06:51 57.204759 60.121699 0 0 0 0 1 delete
07:06:50 57.204751 60.121685 0 0 0 0 1 delete
07:06:49 57.204746 60.121673 0 0 0 0 1 delete
07:06:48 57.204743 60.121661 0 0 0 0 1 delete
07:06:47 57.204757 60.121647 0 0 0 0 1 delete
07:06:46 57.204769 60.121635 0 0 0 0 1 delete
07:06:45 57.204780 60.121620 0 0 0 0 1 delete
07:06:44 57.204780 60.121620 0 0 0 0 1 delete
07:06:30 57.204780 60.121620 0 0 0 0 1 delete
07:06:29 57.204773 60.121608 0 0 0 0 1 delete
07:06:28 57.204761 60.121584 0 0 0 0 1 delete
07:06:27 57.204740 60.121540 0 0 0 0 1 delete
07:06:26 57.204678 60.121410 0 0 0 0 1 delete
07:06:25 57.204621 60.121293 0 0 0 0 1 delete
07:06:24 57.204609 60.121322 0 0 0 0 1 delete
07:06:23 57.204642 60.121448 0 0 0 0 1 delete
07:06:22 57.204681 60.121579 0 0 0 0 1 delete
07:06:21 57.204681 60.121579 0 0 0 0 1 delete
07:06:06 57.204681 60.121579 0 0 0 0 1 delete
07:06:05 57.204690 60.121592 0 0 0 0 1 delete
07:06:04 57.204698 60.121607 0 0 0 0 1 delete
07:06:03 57.204728 60.121675 0 0 0 0 1 delete
07:06:02 57.204757 60.121743 0 0 0 0 1 delete
07:06:01 57.204783 60.121801 0 0 0 0 1 delete
07:06:00 57.204783 60.121801 0 0 0 0 1 delete
07:05:54 57.204783 60.121801 0 0 0 0 1 delete
07:05:53 57.204783 60.121804 0 0 0 0 1 delete
07:05:52 57.204786 60.121811 0 0 0 0 1 delete
07:05:51 57.204794 60.121820 0 0 0 0 1 delete
07:05:50 57.204798 60.121825 0 0 0 0 1 delete
07:05:49 57.204795 60.121813 0 0 0 0 1 delete
07:05:48 57.204789 60.121798 0 0 0 0 1 delete
07:05:47 57.204786 60.121789 0 0 0 0 1 delete
07:05:46 57.204783 60.121782 0 0 0 0 1 delete
07:05:45 57.204782 60.121780 0 0 0 0 1 delete
07:05:44 57.204778 60.121776 0 0 0 0 1 delete
07:05:43 57.204776 60.121774 0 0 0 0 1 delete
07:05:42 57.204771 60.121766 0 0 0 0 1 delete
07:05:41 57.204769 60.121760 0 0 0 0 1 delete
07:05:40 57.204765 60.121754 0 0 0 0 1 delete
07:05:39 57.204764 60.121749 0 0 0 0 1 delete
07:05:38 57.204762 60.121745 0 0 0 0 1 delete
07:05:37 57.204763 60.121749 0 0 0 0 1 delete
07:05:36 57.204765 60.121759 0 0 0 0 1 delete
07:05:35 57.204770 60.121773 0 0 0 0 1 delete